createdAt,value
2019-03-03T00:00:16.401Z,22.55
2019-03-03T00:02:17.987Z,22.49
2019-03-03T00:04:19.590Z,22.45
2019-03-03T00:06:21.197Z,22.43
2019-03-03T00:08:24.544Z,22.44
2019-03-03T00:10:24.500Z,22.42
2019-03-03T00:12:26.102Z,22.40
2019-03-03T00:14:27.694Z,22.37
2019-03-03T00:16:29.304Z,22.37
2019-03-03T00:18:31.069Z,22.37
2019-03-03T00:20:32.682Z,22.36
2019-03-03T00:22:34.291Z,22.38
2019-03-03T00:24:35.918Z,22.38
2019-03-03T00:26:37.531Z,22.41
2019-03-03T00:28:39.158Z,22.43
2019-03-03T00:30:40.787Z,22.44
2019-03-03T00:32:42.397Z,22.47
2019-03-03T00:34:44.030Z,22.44
2019-03-03T00:36:51.272Z,22.44
2019-03-03T00:38:55.540Z,22.22
2019-03-03T00:40:57.166Z,22.43
2019-03-03T00:43:17.446Z,22.42
2019-03-03T00:45:33.954Z,22.22
2019-03-03T00:47:37.300Z,22.45
2019-03-03T00:49:41.446Z,22.48
2019-03-03T00:51:44.932Z,22.46
2019-03-03T00:53:52.250Z,22.47
2019-03-03T00:55:58.345Z,22.48
2019-03-03T00:58:03.384Z,22.45
2019-03-03T01:00:07.633Z,22.48
2019-03-03T01:02:11.744Z,22.48
2019-03-03T01:04:13.337Z,22.49
2019-03-03T01:06:14.965Z,22.46
2019-03-03T01:08:24.117Z,22.46
2019-03-03T01:10:26.309Z,22.44
2019-03-03T01:12:28.554Z,22.43
2019-03-03T01:14:31.007Z,22.42
2019-03-03T01:16:35.392Z,22.40
2019-03-03T01:18:42.584Z,22.38
2019-03-03T01:20:46.591Z,22.38
2019-03-03T01:22:53.992Z,22.32
2019-03-03T01:24:56.141Z,22.43
2019-03-03T01:26:57.756Z,22.26
2019-03-03T01:28:59.373Z,22.23
2019-03-03T01:31:00.966Z,22.24
2019-03-03T01:33:02.589Z,22.26
2019-03-03T01:35:04.213Z,22.26
2019-03-03T01:37:05.822Z,22.30
2019-03-03T01:39:07.448Z,22.35
2019-03-03T01:41:09.049Z,22.35
2019-03-03T01:43:10.678Z,22.38
2019-03-03T01:45:12.270Z,22.38
2019-03-03T01:47:13.883Z,22.36
2019-03-03T01:49:15.477Z,22.35
2019-03-03T01:51:17.082Z,22.37
2019-03-03T01:53:18.709Z,22.39
2019-03-03T01:55:20.320Z,22.40
2019-03-03T01:57:21.914Z,22.36
2019-03-03T01:59:23.506Z,22.31
2019-03-03T02:01:25.111Z,22.27
2019-03-03T02:03:26.745Z,22.24
2019-03-03T02:05:28.350Z,22.22
2019-03-03T02:07:29.947Z,22.21
2019-03-03T02:09:31.541Z,22.19
2019-03-03T02:11:33.200Z,22.18
2019-03-03T02:13:34.793Z,22.17
2019-03-03T02:15:36.431Z,22.17
2019-03-03T02:17:38.026Z,22.16
2019-03-03T02:19:39.653Z,22.15
2019-03-03T02:21:41.250Z,22.16
2019-03-03T02:23:42.890Z,22.16
2019-03-03T02:25:44.521Z,22.16
2019-03-03T02:27:46.128Z,22.16
2019-03-03T02:29:47.763Z,22.16
2019-03-03T02:31:49.378Z,22.17
2019-03-03T02:33:50.979Z,22.16
2019-03-03T02:35:52.575Z,22.15
2019-03-03T02:37:54.169Z,22.16
2019-03-03T02:39:55.795Z,22.14
2019-03-03T02:41:57.387Z,22.15
2019-03-03T02:43:59.024Z,22.16
2019-03-03T02:46:00.621Z,22.16
2019-03-03T02:48:02.222Z,22.18
2019-03-03T02:50:03.846Z,22.20
2019-03-03T02:52:05.456Z,22.23
2019-03-03T02:54:07.064Z,22.27
2019-03-03T02:56:08.662Z,22.31
2019-03-03T02:58:10.268Z,22.35
2019-03-03T03:00:11.904Z,22.36
2019-03-03T03:02:13.503Z,22.42
2019-03-03T03:04:15.100Z,22.47
2019-03-03T03:06:16.746Z,22.49
2019-03-03T03:08:19.144Z,22.49
2019-03-03T03:10:26.381Z,22.45
2019-03-03T03:12:27.979Z,22.53
2019-03-03T03:14:30.444Z,22.55
2019-03-03T03:16:34.561Z,22.56
2019-03-03T03:18:39.152Z,22.56
2019-03-03T03:20:50.682Z,22.55
2019-03-03T03:22:52.315Z,22.33
2019-03-03T03:24:59.475Z,22.51
2019-03-03T03:27:07.600Z,22.49
2019-03-03T03:29:14.814Z,22.49
2019-03-03T03:31:26.379Z,22.47
2019-03-03T03:33:31.679Z,22.43
2019-03-03T03:35:50.101Z,22.40
2019-03-03T03:37:51.743Z,22.34
2019-03-03T03:40:09.125Z,22.33
2019-03-03T03:42:10.741Z,22.30
2019-03-03T03:44:16.295Z,22.28
2019-03-03T03:46:22.593Z,22.26
2019-03-03T03:48:26.875Z,21.79
2019-03-03T03:50:34.219Z,22.23
2019-03-03T03:52:39.319Z,22.23
2019-03-03T03:54:40.919Z,22.22
2019-03-03T03:56:42.554Z,22.21
2019-03-03T03:58:45.722Z,22.19
2019-03-03T04:00:47.324Z,22.21
2019-03-03T04:02:50.906Z,22.27
2019-03-03T04:04:52.556Z,22.27
2019-03-03T04:06:58.869Z,22.27
2019-03-03T04:09:06.459Z,22.25
2019-03-03T04:11:10.517Z,22.30
2019-03-03T04:13:12.784Z,22.32
2019-03-03T04:15:14.979Z,22.31
2019-03-03T04:17:20.615Z,22.32
2019-03-03T04:19:22.223Z,22.34
2019-03-03T04:21:29.699Z,22.36
2019-03-03T04:23:36.853Z,22.37
2019-03-03T04:25:41.238Z,22.39
2019-03-03T04:27:44.726Z,22.42
2019-03-03T04:30:00.327Z,22.44
2019-03-03T04:32:16.607Z,22.45
2019-03-03T04:34:18.191Z,22.46
2019-03-03T04:36:22.337Z,22.48
2019-03-03T04:38:29.737Z,22.47
2019-03-03T04:40:42.126Z,22.48
2019-03-03T04:42:48.688Z,22.45
2019-03-03T04:44:53.945Z,22.45
2019-03-03T04:46:58.217Z,22.43
2019-03-03T04:49:14.695Z,22.42
2019-03-03T04:51:17.079Z,22.39
2019-03-03T04:53:28.594Z,22.38
2019-03-03T04:55:33.822Z,22.39
2019-03-03T04:57:41.005Z,22.36
2019-03-03T04:59:44.340Z,22.36
2019-03-03T05:01:56.617Z,22.39
2019-03-03T05:03:58.267Z,22.41
2019-03-03T05:06:16.632Z,22.35
2019-03-03T05:08:18.343Z,22.28
2019-03-03T05:10:20.564Z,22.22
2019-03-03T05:12:38.894Z,22.20
2019-03-03T05:14:40.489Z,22.19
2019-03-03T05:16:42.130Z,22.15
2019-03-03T05:18:43.730Z,22.16
2019-03-03T05:20:45.325Z,22.19
2019-03-03T05:22:46.909Z,22.17
2019-03-03T05:24:48.493Z,22.14
2019-03-03T05:26:50.118Z,22.14
2019-03-03T05:28:51.724Z,22.13
2019-03-03T05:30:53.332Z,22.20
2019-03-03T05:32:54.926Z,22.17
2019-03-03T05:34:56.533Z,22.16
2019-03-03T05:36:58.181Z,22.19
2019-03-03T05:38:59.841Z,22.21
2019-03-03T05:41:01.484Z,22.24
2019-03-03T05:43:03.077Z,22.29
2019-03-03T05:45:04.673Z,22.30
2019-03-03T05:47:06.285Z,22.33
2019-03-03T05:49:07.910Z,22.37
2019-03-03T05:51:09.517Z,22.43
2019-03-03T05:53:11.115Z,22.51
2019-03-03T05:55:12.710Z,22.59
2019-03-03T05:57:14.315Z,22.54
2019-03-03T05:59:15.959Z,22.47
2019-03-03T06:01:17.544Z,22.47
2019-03-03T06:03:19.138Z,22.48
2019-03-03T06:05:20.738Z,22.50
2019-03-03T06:07:22.334Z,22.48
2019-03-03T06:09:23.958Z,22.46
2019-03-03T06:11:25.582Z,22.44
2019-03-03T06:13:27.197Z,22.44
2019-03-03T06:15:28.825Z,22.44
2019-03-03T06:17:30.428Z,22.42
2019-03-03T06:19:32.012Z,22.39
2019-03-03T06:21:33.637Z,22.35
2019-03-03T06:23:35.246Z,22.33
2019-03-03T06:25:36.883Z,22.35
2019-03-03T06:27:38.495Z,22.30
2019-03-03T06:29:40.105Z,22.24
2019-03-03T06:31:41.712Z,22.17
2019-03-03T06:33:43.310Z,22.11
2019-03-03T06:35:44.905Z,22.07
2019-03-03T06:37:46.502Z,22.03
2019-03-03T06:39:48.098Z,22.01
2019-03-03T06:41:49.680Z,21.99
2019-03-03T06:43:51.280Z,21.99
2019-03-03T06:45:52.924Z,21.99
2019-03-03T06:47:54.517Z,22.01
2019-03-03T06:49:56.112Z,22.03
2019-03-03T06:51:57.720Z,22.04
2019-03-03T06:53:59.318Z,21.99
2019-03-03T06:56:00.953Z,22.13
2019-03-03T06:58:02.577Z,22.18
2019-03-03T07:00:04.185Z,22.21
2019-03-03T07:02:05.795Z,22.25
2019-03-03T07:04:07.398Z,22.27
2019-03-03T07:06:09.044Z,22.28
2019-03-03T07:08:10.688Z,22.26
2019-03-03T07:10:12.282Z,22.20
2019-03-03T07:12:13.935Z,22.15
2019-03-03T07:14:15.529Z,22.09
2019-03-03T07:16:17.111Z,22.03
2019-03-03T07:18:18.705Z,22.01
2019-03-03T07:20:20.315Z,21.89
2019-03-03T07:22:21.958Z,21.97
2019-03-03T07:24:23.552Z,21.99
2019-03-03T07:26:25.146Z,22.05
2019-03-03T07:28:26.843Z,22.09
2019-03-03T07:30:28.737Z,22.16
2019-03-03T07:32:30.379Z,22.21
2019-03-03T07:34:31.988Z,22.31
2019-03-03T07:36:33.590Z,22.37
2019-03-03T07:38:35.217Z,22.21
2019-03-03T07:40:36.809Z,22.45
2019-03-03T07:42:38.419Z,22.49
2019-03-03T07:44:39.999Z,22.57
2019-03-03T07:46:41.595Z,22.62
2019-03-03T07:48:43.235Z,22.66
2019-03-03T07:50:44.831Z,22.65
2019-03-03T07:52:46.424Z,22.63
2019-03-03T07:54:48.018Z,22.61
2019-03-03T07:56:49.617Z,22.61
2019-03-03T07:58:51.213Z,22.58
2019-03-03T08:00:52.820Z,22.54
2019-03-03T08:02:54.418Z,22.49
2019-03-03T08:04:56.014Z,22.46
2019-03-03T08:06:57.607Z,22.44
2019-03-03T08:08:59.188Z,22.42
2019-03-03T08:11:00.826Z,22.38
2019-03-03T08:13:09.255Z,22.38
2019-03-03T08:15:04.134Z,22.38
2019-03-03T08:17:05.733Z,22.12
2019-03-03T08:19:07.316Z,22.33
2019-03-03T08:21:08.956Z,22.30
2019-03-03T08:23:10.557Z,22.25
2019-03-03T08:25:12.185Z,22.29
2019-03-03T08:27:13.779Z,22.38
2019-03-03T08:29:15.377Z,22.41
2019-03-03T08:31:16.991Z,22.28
2019-03-03T08:33:18.590Z,22.08
2019-03-03T08:35:20.204Z,22.14
2019-03-03T08:37:21.811Z,22.27
2019-03-03T08:39:23.409Z,22.31
2019-03-03T08:41:25.076Z,22.33
2019-03-03T08:43:27.141Z,22.31
2019-03-03T08:45:31.554Z,22.31
2019-03-03T08:47:33.146Z,22.32
2019-03-03T08:49:36.156Z,22.34
2019-03-03T08:51:42.398Z,22.36
2019-03-03T08:53:58.898Z,22.41
2019-03-03T08:56:21.481Z,22.47
2019-03-03T08:58:39.833Z,22.53
2019-03-03T09:00:48.042Z,22.59
2019-03-03T09:02:50.150Z,22.65
2019-03-03T09:05:07.456Z,22.72
2019-03-03T09:07:09.064Z,22.76
2019-03-03T09:09:16.461Z,22.79
2019-03-03T09:11:36.662Z,22.88
2019-03-03T09:13:39.222Z,22.98
2019-03-03T09:15:41.329Z,23.03
2019-03-03T09:17:48.571Z,23.00
2019-03-03T09:19:52.968Z,23.00
2019-03-03T09:21:56.298Z,22.98
2019-03-03T09:24:00.684Z,22.97
2019-03-03T09:26:17.153Z,22.98
2019-03-03T09:28:37.589Z,23.06
2019-03-03T09:30:42.653Z,22.91
2019-03-03T09:32:49.978Z,22.82
2019-03-03T09:35:07.166Z,22.67
2019-03-03T09:37:09.628Z,22.56
2019-03-03T09:39:29.906Z,22.48
2019-03-03T09:41:44.282Z,22.41
2019-03-03T09:43:59.620Z,22.34
2019-03-03T09:46:02.024Z,22.24
2019-03-03T09:48:05.496Z,22.18
2019-03-03T09:50:08.611Z,22.12
2019-03-03T09:52:15.852Z,22.09
2019-03-03T09:54:19.210Z,22.03
2019-03-03T09:56:25.506Z,21.97
2019-03-03T09:58:29.622Z,21.94
2019-03-03T10:00:41.958Z,21.91
2019-03-03T10:02:55.282Z,21.86
2019-03-03T10:05:11.786Z,21.82
2019-03-03T10:07:19.073Z,21.82
2019-03-03T10:09:32.487Z,21.82
2019-03-03T10:11:34.813Z,21.87
2019-03-03T10:13:36.462Z,21.89
2019-03-03T10:15:47.977Z,21.94
2019-03-03T10:18:05.413Z,21.97
2019-03-03T10:20:20.746Z,22.02
2019-03-03T10:22:28.288Z,22.07
2019-03-03T10:24:33.377Z,22.11
2019-03-03T10:26:49.872Z,22.16
2019-03-03T10:29:06.411Z,21.16
2019-03-03T10:31:12.878Z,20.43
2019-03-03T10:33:24.389Z,20.12
2019-03-03T10:35:43.693Z,19.99
2019-03-03T10:37:46.844Z,20.18
2019-03-03T10:39:50.247Z,21.39
2019-03-03T10:41:54.338Z,21.81
2019-03-03T10:43:56.692Z,22.04
2019-03-03T10:46:03.946Z,21.81
2019-03-03T10:48:11.005Z,22.02
2019-03-03T10:50:27.518Z,22.14
2019-03-03T10:52:33.688Z,22.17
2019-03-03T10:54:39.776Z,22.23
2019-03-03T10:56:58.237Z,22.25
2019-03-03T10:59:02.612Z,22.26
2019-03-03T11:01:05.807Z,22.29
2019-03-03T11:03:09.453Z,22.29
2019-03-03T11:05:29.751Z,22.32
2019-03-03T11:07:31.345Z,22.34
2019-03-03T11:09:32.932Z,22.12
2019-03-03T11:11:49.396Z,22.37
2019-03-03T11:13:54.869Z,22.38
2019-03-03T11:16:13.122Z,22.39
2019-03-03T11:18:15.075Z,22.44
2019-03-03T11:20:27.534Z,22.44
2019-03-03T11:22:29.125Z,22.44
2019-03-03T11:24:46.713Z,22.42
2019-03-03T11:26:50.175Z,22.40
2019-03-03T11:28:54.309Z,22.41
2019-03-03T11:30:58.802Z,22.42
2019-03-03T11:33:05.958Z,22.47
2019-03-03T11:35:23.252Z,22.49
2019-03-03T11:37:41.636Z,22.41
2019-03-03T11:39:56.129Z,22.38
2019-03-03T11:41:58.649Z,22.34
2019-03-03T11:44:02.966Z,22.28
2019-03-03T11:46:10.383Z,22.25
2019-03-03T11:48:16.429Z,22.20
2019-03-03T11:50:22.692Z,22.12
2019-03-03T11:52:28.860Z,22.05
2019-03-03T11:54:31.111Z,21.99
2019-03-03T11:56:47.600Z,21.95
2019-03-03T11:58:49.719Z,21.93
2019-03-03T12:01:01.244Z,21.94
2019-03-03T12:03:08.571Z,21.92
2019-03-03T12:05:15.824Z,21.88
2019-03-03T12:07:34.144Z,21.86
2019-03-03T12:09:51.400Z,21.83
2019-03-03T12:11:54.780Z,21.78
2019-03-03T12:13:56.374Z,21.80
2019-03-03T12:16:18.681Z,21.80
2019-03-03T12:18:37.056Z,21.78
2019-03-03T12:20:54.353Z,21.80
2019-03-03T12:23:17.258Z,21.81
2019-03-03T12:25:21.785Z,21.83
2019-03-03T12:27:40.064Z,22.02
2019-03-03T12:29:42.576Z,22.17
2019-03-03T12:31:44.825Z,22.19
2019-03-03T12:33:47.207Z,22.21
2019-03-03T12:35:52.712Z,22.26
2019-03-03T12:37:57.996Z,22.24
2019-03-03T12:40:09.505Z,22.26
2019-03-03T12:42:16.814Z,22.29
2019-03-03T12:44:19.155Z,22.33
2019-03-03T12:46:22.670Z,22.29
2019-03-03T12:48:40.891Z,22.30
2019-03-03T12:50:48.291Z,22.33
2019-03-03T12:52:53.520Z,22.30
2019-03-03T12:54:57.624Z,22.30
2019-03-03T12:56:59.265Z,22.31
2019-03-03T12:59:05.572Z,22.31
2019-03-03T13:01:26.085Z,22.29
2019-03-03T13:03:30.661Z,22.27
2019-03-03T13:05:49.080Z,22.29
2019-03-03T13:07:56.216Z,22.34
2019-03-03T13:09:58.871Z,22.33
2019-03-03T13:12:02.332Z,22.29
2019-03-03T13:14:06.404Z,22.28
2019-03-03T13:16:24.810Z,22.27
2019-03-03T13:18:28.985Z,22.24
2019-03-03T13:20:31.492Z,22.22
2019-03-03T13:22:48.055Z,22.18
2019-03-03T13:24:49.669Z,22.13
2019-03-03T13:26:51.785Z,22.10
2019-03-03T13:28:55.430Z,22.10
2019-03-03T13:30:57.970Z,22.10
2019-03-03T13:33:02.384Z,22.11
2019-03-03T13:35:05.786Z,22.11
2019-03-03T13:37:07.612Z,22.10
2019-03-03T13:39:26.072Z,22.08
2019-03-03T13:41:28.921Z,22.09
2019-03-03T13:43:30.519Z,22.10
2019-03-03T13:45:32.114Z,22.13
2019-03-03T13:47:33.741Z,22.12
2019-03-03T13:49:35.353Z,22.13
2019-03-03T13:51:36.946Z,22.12
2019-03-03T13:53:38.560Z,22.06
2019-03-03T13:55:40.161Z,22.08
2019-03-03T13:57:41.785Z,22.01
2019-03-03T13:59:43.382Z,21.94
2019-03-03T14:01:44.963Z,21.93
2019-03-03T14:03:46.579Z,21.85
2019-03-03T14:05:48.182Z,21.78
2019-03-03T14:07:49.823Z,21.76
2019-03-03T14:09:51.419Z,21.76
2019-03-03T14:11:53.031Z,21.74
2019-03-03T14:13:54.625Z,21.74
2019-03-03T14:15:56.226Z,21.77
2019-03-03T14:17:58.139Z,21.78
2019-03-03T14:19:59.477Z,21.79
2019-03-03T14:22:01.091Z,21.81
2019-03-03T14:24:02.776Z,21.83
2019-03-03T14:26:04.370Z,21.83
2019-03-03T14:28:05.984Z,21.88
2019-03-03T14:30:07.579Z,21.90
2019-03-03T14:32:09.160Z,21.91
2019-03-03T14:34:10.755Z,21.96
2019-03-03T14:36:12.354Z,21.98
2019-03-03T14:38:13.967Z,21.98
2019-03-03T14:40:15.576Z,21.99
2019-03-03T14:42:17.201Z,22.01
2019-03-03T14:44:18.801Z,22.01
2019-03-03T14:46:20.385Z,22.02
2019-03-03T14:48:21.997Z,22.01
2019-03-03T14:50:23.614Z,22.01
2019-03-03T14:52:25.228Z,21.99
2019-03-03T14:54:26.836Z,22.00
2019-03-03T14:56:28.433Z,22.01
2019-03-03T14:58:30.024Z,21.89
2019-03-03T15:00:31.620Z,22.01
2019-03-03T15:02:33.246Z,21.97
2019-03-03T15:04:34.842Z,21.92
2019-03-03T15:06:36.444Z,21.90
2019-03-03T15:08:38.042Z,21.89
2019-03-03T15:10:39.670Z,21.89
2019-03-03T15:12:41.330Z,21.88
2019-03-03T15:14:42.912Z,21.87
2019-03-03T15:16:44.507Z,21.88
2019-03-03T15:18:46.732Z,21.90
2019-03-03T15:20:48.327Z,21.87
2019-03-03T15:22:49.943Z,21.86
2019-03-03T15:24:51.537Z,21.82
2019-03-03T15:26:53.156Z,21.78
2019-03-03T15:28:54.760Z,21.66
2019-03-03T15:30:56.441Z,21.68
2019-03-03T15:32:58.070Z,21.75
2019-03-03T15:34:59.719Z,21.80
2019-03-03T15:37:01.376Z,21.67
2019-03-03T15:39:02.983Z,21.91
2019-03-03T15:41:04.628Z,21.71
2019-03-03T15:43:06.243Z,21.72
2019-03-03T15:45:07.949Z,21.97
2019-03-03T15:47:09.577Z,22.34
2019-03-03T15:49:11.169Z,22.14
2019-03-03T15:51:12.752Z,22.63
2019-03-03T15:53:14.612Z,22.74
2019-03-03T15:55:16.208Z,22.73
2019-03-03T15:57:17.831Z,22.72
2019-03-03T15:59:20.469Z,22.71
2019-03-03T16:01:22.192Z,22.80
2019-03-03T16:03:23.952Z,22.75
2019-03-03T16:05:26.078Z,22.75
2019-03-03T16:07:27.690Z,22.90
2019-03-03T16:09:29.312Z,22.91
2019-03-03T16:11:30.896Z,23.27
2019-03-03T16:13:32.490Z,23.32
2019-03-03T16:15:34.095Z,23.37
2019-03-03T16:17:35.700Z,23.64
2019-03-03T16:19:37.452Z,23.68
2019-03-03T16:21:39.080Z,23.66
2019-03-03T16:23:40.708Z,23.81
2019-03-03T16:25:42.302Z,23.63
2019-03-03T16:27:43.913Z,23.56
2019-03-03T16:29:45.553Z,23.52
2019-03-03T16:31:47.248Z,23.48
2019-03-03T16:33:48.936Z,23.46
2019-03-03T16:35:50.530Z,23.71
2019-03-03T16:37:52.133Z,23.55
2019-03-03T16:39:53.772Z,23.64
2019-03-03T16:41:55.435Z,23.63
2019-03-03T16:43:57.055Z,23.52
2019-03-03T16:45:58.665Z,23.62
2019-03-03T16:48:00.279Z,23.95
2019-03-03T16:50:01.926Z,23.94
2019-03-03T16:52:03.531Z,23.48
2019-03-03T16:54:05.138Z,22.99
2019-03-03T16:56:06.744Z,22.99
2019-03-03T16:58:08.356Z,22.92
2019-03-03T17:00:09.998Z,22.73
2019-03-03T17:02:11.597Z,22.81
2019-03-03T17:04:13.205Z,22.88
2019-03-03T17:06:14.825Z,23.04
2019-03-03T17:08:16.425Z,22.75
2019-03-03T17:10:18.041Z,22.33
2019-03-03T17:12:19.699Z,22.17
2019-03-03T17:14:21.307Z,21.95
2019-03-03T17:16:22.925Z,22.04
2019-03-03T17:18:24.521Z,21.68
2019-03-03T17:20:26.137Z,21.55
2019-03-03T17:22:27.912Z,21.55
2019-03-03T17:24:29.524Z,21.55
2019-03-03T17:26:31.127Z,22.07
2019-03-03T17:28:32.741Z,22.14
2019-03-03T17:30:34.328Z,21.87
2019-03-03T17:32:35.926Z,21.78
2019-03-03T17:34:37.570Z,21.80
2019-03-03T17:36:39.165Z,22.49
2019-03-03T17:38:40.767Z,22.29
2019-03-03T17:40:42.361Z,22.61
2019-03-03T17:42:43.994Z,23.14
2019-03-03T17:44:45.638Z,23.64
2019-03-03T17:46:47.228Z,23.72
2019-03-03T17:48:48.822Z,23.96
2019-03-03T17:50:50.407Z,23.41
2019-03-03T17:52:52.001Z,23.62
2019-03-03T17:54:53.613Z,23.76
2019-03-03T17:56:55.233Z,23.51
2019-03-03T17:58:56.828Z,23.32
2019-03-03T18:00:58.479Z,23.31
2019-03-03T18:03:00.131Z,23.24
2019-03-03T18:05:01.744Z,23.29
2019-03-03T18:07:03.393Z,23.09
2019-03-03T18:09:05.032Z,23.36
2019-03-03T18:11:06.671Z,22.91
2019-03-03T18:13:08.284Z,22.80
2019-03-03T18:15:09.872Z,22.76
2019-03-03T18:17:11.519Z,22.68
2019-03-03T18:19:13.214Z,22.68
2019-03-03T18:21:15.032Z,22.63
2019-03-03T18:23:16.649Z,22.45
2019-03-03T18:25:18.287Z,22.81
2019-03-03T18:27:19.892Z,22.98
2019-03-03T18:29:21.503Z,22.93
2019-03-03T18:31:23.112Z,22.71
2019-03-03T18:33:24.735Z,22.56
2019-03-03T18:35:26.376Z,22.48
2019-03-03T18:37:27.988Z,22.42
2019-03-03T18:39:29.595Z,22.38
2019-03-03T18:41:31.455Z,22.34
2019-03-03T18:43:33.096Z,22.33
2019-03-03T18:45:34.722Z,22.28
2019-03-03T18:47:36.418Z,22.25
2019-03-03T18:49:38.019Z,22.22
2019-03-03T18:51:39.633Z,22.16
2019-03-03T18:53:41.296Z,22.13
2019-03-03T18:55:42.889Z,22.09
2019-03-03T18:57:44.491Z,22.67
2019-03-03T18:59:46.090Z,22.93
2019-03-03T19:01:47.714Z,22.70
2019-03-03T19:03:49.324Z,22.82
2019-03-03T19:05:55.665Z,22.50
2019-03-03T19:07:53.626Z,22.36
2019-03-03T19:09:55.270Z,22.31
2019-03-03T19:11:56.867Z,22.25
2019-03-03T19:13:58.651Z,22.28
2019-03-03T19:16:00.554Z,22.31
2019-03-03T19:18:02.264Z,22.31
2019-03-03T19:20:03.906Z,22.32
2019-03-03T19:22:05.530Z,22.33
2019-03-03T19:24:07.150Z,22.36
2019-03-03T19:26:08.746Z,22.34
2019-03-03T19:28:10.328Z,22.38
2019-03-03T19:30:11.968Z,22.28
2019-03-03T19:32:13.576Z,22.39
2019-03-03T19:34:15.213Z,22.40
2019-03-03T19:36:16.814Z,22.29
2019-03-03T19:38:18.415Z,22.37
2019-03-03T19:40:20.050Z,22.38
2019-03-03T19:42:21.642Z,22.35
2019-03-03T19:44:23.246Z,22.34
2019-03-03T19:46:24.842Z,22.30
2019-03-03T19:48:26.470Z,22.26
2019-03-03T19:50:28.062Z,22.78
2019-03-03T19:52:29.676Z,23.01
2019-03-03T19:54:32.054Z,23.00
2019-03-03T19:56:33.738Z,22.83
2019-03-03T19:58:35.334Z,23.29
2019-03-03T20:00:38.905Z,23.22
2019-03-03T20:02:38.593Z,23.17
2019-03-03T20:04:41.229Z,23.02
2019-03-03T20:06:42.835Z,22.93
2019-03-03T20:08:44.432Z,22.98
2019-03-03T20:10:46.040Z,22.84
2019-03-03T20:12:47.640Z,22.57
2019-03-03T20:14:49.252Z,22.43
2019-03-03T20:16:50.900Z,22.44
2019-03-03T20:18:52.495Z,22.81
2019-03-03T20:20:54.093Z,23.03
2019-03-03T20:22:55.847Z,23.00
2019-03-03T20:24:57.780Z,23.08
2019-03-03T20:26:59.547Z,23.04
2019-03-03T20:29:01.250Z,22.90
2019-03-03T20:31:02.860Z,23.10
2019-03-03T20:33:04.444Z,23.12
2019-03-03T20:35:06.085Z,23.06
2019-03-03T20:37:07.692Z,23.06
2019-03-03T20:39:09.326Z,23.09
2019-03-03T20:41:10.935Z,23.06
2019-03-03T20:43:12.546Z,23.05
2019-03-03T20:45:14.185Z,23.07
2019-03-03T20:47:15.782Z,23.11
2019-03-03T20:49:17.368Z,23.06
2019-03-03T20:51:18.966Z,22.93
2019-03-03T20:53:20.561Z,23.44
2019-03-03T20:55:22.203Z,23.22
2019-03-03T20:57:23.790Z,23.11
2019-03-03T20:59:25.444Z,23.14
2019-03-03T21:01:27.212Z,23.15
2019-03-03T21:03:28.979Z,23.13
2019-03-03T21:05:31.058Z,23.18
2019-03-03T21:07:32.668Z,22.56
2019-03-03T21:09:34.252Z,22.34
2019-03-03T21:11:35.869Z,22.64
2019-03-03T21:13:37.484Z,22.75
2019-03-03T21:15:39.097Z,22.60
2019-03-03T21:17:40.712Z,22.87
2019-03-03T21:19:42.344Z,22.99
2019-03-03T21:21:43.953Z,23.04
2019-03-03T21:23:45.558Z,23.07
2019-03-03T21:25:47.153Z,23.11
2019-03-03T21:27:48.755Z,23.10
2019-03-03T21:29:50.382Z,23.04
2019-03-03T21:31:51.968Z,23.06
2019-03-03T21:33:53.621Z,23.13
2019-03-03T21:35:55.228Z,23.13
2019-03-03T21:37:58.901Z,22.92
2019-03-03T21:39:58.914Z,23.18
2019-03-03T21:42:00.662Z,23.11
2019-03-03T21:44:02.342Z,23.19
2019-03-03T21:46:03.954Z,23.28
2019-03-03T21:48:05.561Z,23.42
2019-03-03T21:50:07.185Z,23.38
2019-03-03T21:52:08.784Z,23.45
2019-03-03T21:54:10.386Z,23.41
2019-03-03T21:56:11.996Z,23.38
2019-03-03T21:58:13.608Z,23.63
2019-03-03T22:00:15.256Z,23.51
2019-03-03T22:02:16.864Z,23.44
2019-03-03T22:04:18.477Z,23.43
2019-03-03T22:06:20.087Z,23.41
2019-03-03T22:08:21.686Z,23.38
2019-03-03T22:10:29.093Z,23.34
2019-03-03T22:12:30.676Z,23.15
2019-03-03T22:14:32.316Z,22.88
2019-03-03T22:16:33.914Z,23.01
2019-03-03T22:18:35.524Z,23.16
2019-03-03T22:20:37.150Z,23.21
2019-03-03T22:22:38.756Z,23.26
2019-03-03T22:24:40.385Z,23.25
2019-03-03T22:26:41.996Z,23.26
2019-03-03T22:28:43.583Z,23.29
2019-03-03T22:30:45.229Z,23.68
2019-03-03T22:32:47.414Z,24.06
2019-03-03T22:34:49.037Z,24.10
2019-03-03T22:36:50.634Z,23.97
2019-03-03T22:38:52.229Z,24.06
2019-03-03T22:40:53.836Z,23.29
2019-03-03T22:42:55.447Z,22.78
2019-03-03T22:44:57.077Z,22.64
2019-03-03T22:46:58.682Z,22.48
2019-03-03T22:49:00.290Z,22.39
2019-03-03T22:51:01.904Z,22.30
2019-03-03T22:53:03.503Z,22.25
2019-03-03T22:55:05.099Z,22.18
2019-03-03T22:57:06.697Z,22.13
2019-03-03T22:59:08.312Z,22.06
2019-03-03T23:01:09.910Z,22.02
2019-03-03T23:03:11.505Z,21.98
2019-03-03T23:05:13.101Z,21.93
2019-03-03T23:07:14.684Z,21.88
2019-03-03T23:09:16.287Z,21.84
2019-03-03T23:11:19.432Z,21.81
2019-03-03T23:13:21.025Z,21.78
2019-03-03T23:15:22.612Z,21.75
2019-03-03T23:17:24.238Z,21.73
2019-03-03T23:19:25.844Z,21.71
2019-03-03T23:21:27.498Z,21.70
2019-03-03T23:23:29.122Z,21.70
2019-03-03T23:25:30.734Z,21.70
2019-03-03T23:27:32.333Z,21.68
2019-03-03T23:29:33.941Z,21.68
2019-03-03T23:31:35.561Z,21.65
2019-03-03T23:33:37.158Z,21.63
2019-03-03T23:35:38.754Z,21.60
2019-03-03T23:37:40.346Z,21.56
2019-03-03T23:39:41.938Z,21.53
2019-03-03T23:41:43.534Z,21.52
2019-03-03T23:43:45.158Z,21.52
2019-03-03T23:45:46.763Z,21.51
2019-03-03T23:47:48.403Z,21.51
2019-03-03T23:49:50.002Z,21.54
2019-03-03T23:51:52.172Z,21.56
2019-03-03T23:53:53.812Z,21.53
2019-03-03T23:55:55.406Z,21.49
2019-03-03T23:57:57.044Z,21.44
2019-03-03T23:59:58.645Z,21.43
